Jerusalem, Israel
Current Conditions -  °F | °C
As of 10:20 AM on Friday 24 Oct 2014 (Local Time) from LLBG Reporting Station
Clear Clear  
Wind Chill: 81°   Ceiling: Unl
Heat Index: 81°   Visibility: 6mi
Dew Point: 52°   Wind: 1mph
Humidity: 37%   Direction: NA
Pressure: 30.03"   Gusts: NA
Location:  31.78°N, 35.22°E
Report Text: LLBG 240720Z VRB01KT CAVOK 27/11 Q1017 NOSIG
Loading
Personal Weather Stations






























Interactive Weather Map
Tropical Storm Tracking
New forecast layout! Learn more

10-Day Weather Forecast

Advertisements
Track Severe Weather on mobile